createdAt,value
2023-01-30T00:00:44.843Z,49.91
2023-01-30T00:03:57.463Z,49.95
2023-01-30T00:07:00.441Z,50.04
2023-01-30T00:10:02.637Z,50.15
2023-01-30T00:13:06.961Z,50.14
2023-01-30T00:16:10.083Z,50.17
2023-01-30T00:19:12.592Z,50.31
2023-01-30T00:22:14.785Z,50.35
2023-01-30T00:25:17.193Z,50.42
2023-01-30T00:28:19.379Z,50.45
2023-01-30T00:31:23.021Z,50.48
2023-01-30T00:34:26.022Z,50.52
2023-01-30T00:37:28.763Z,50.54
2023-01-30T00:40:32.915Z,50.47
2023-01-30T00:43:54.859Z,50.55
2023-01-30T00:47:07.462Z,50.48
2023-01-30T00:50:12.068Z,50.54
2023-01-30T00:53:16.367Z,50.59
2023-01-30T00:56:18.962Z,50.59
2023-01-30T00:59:21.732Z,50.60
2023-01-30T01:02:24.623Z,50.68
2023-01-30T01:05:29.341Z,50.54
2023-01-30T01:08:32.210Z,50.56
2023-01-30T01:11:34.895Z,50.67
2023-01-30T01:14:37.748Z,50.71
2023-01-30T01:17:41.420Z,50.68
2023-01-30T01:20:44.132Z,50.93
2023-01-30T01:23:56.310Z,50.77
2023-01-30T01:26:58.876Z,50.79
2023-01-30T01:30:02.371Z,50.87
2023-01-30T01:33:05.388Z,50.95
2023-01-30T01:36:08.373Z,51.01
2023-01-30T01:39:10.716Z,51.23
2023-01-30T01:42:13.025Z,51.09
2023-01-30T01:45:24.568Z,51.09
2023-01-30T01:48:30.550Z,51.09
2023-01-30T01:51:38.822Z,51.14
2023-01-30T01:54:52.871Z,51.23
2023-01-30T01:57:59.804Z,51.30
2023-01-30T02:01:02.427Z,51.24
2023-01-30T02:04:09.348Z,51.16
2023-01-30T02:07:12.685Z,51.19
2023-01-30T02:10:20.126Z,51.23
2023-01-30T02:13:22.795Z,51.29
2023-01-30T02:16:25.813Z,51.44
2023-01-30T02:19:31.511Z,51.51
2023-01-30T02:22:37.977Z,51.39
2023-01-30T02:25:46.238Z,51.38
2023-01-30T02:29:15.573Z,51.64
2023-01-30T02:32:37.426Z,51.55
2023-01-30T02:35:56.237Z,51.54
2023-01-30T02:39:09.188Z,51.54
2023-01-30T02:42:19.842Z,51.44
2023-01-30T02:45:31.963Z,51.49
2023-01-30T02:49:00.770Z,51.62
2023-01-30T02:52:03.789Z,51.49
2023-01-30T02:55:10.902Z,51.45
2023-01-30T02:58:14.993Z,51.45
2023-01-30T03:01:45.917Z,51.56
2023-01-30T03:05:13.272Z,51.64
2023-01-30T03:08:25.065Z,51.68
2023-01-30T03:11:40.068Z,51.72
2023-01-30T03:14:56.604Z,52.03
2023-01-30T03:17:59.775Z,51.89
2023-01-30T03:21:07.253Z,52.11
2023-01-30T03:24:10.058Z,52.60
2023-01-30T03:27:13.923Z,52.98
2023-01-30T03:30:17.900Z,53.13
2023-01-30T03:33:20.561Z,53.19
2023-01-30T03:36:24.368Z,53.31
2023-01-30T03:39:27.342Z,52.83
2023-01-30T03:42:29.733Z,52.91
2023-01-30T03:45:32.132Z,52.78
2023-01-30T03:48:34.353Z,52.97
2023-01-30T03:51:37.915Z,53.19
2023-01-30T03:54:39.932Z,52.59
2023-01-30T03:57:42.503Z,53.31
2023-01-30T04:00:45.446Z,52.80
2023-01-30T04:03:48.487Z,54.38
2023-01-30T04:06:51.399Z,53.69
2023-01-30T04:09:54.537Z,54.72
2023-01-30T04:12:56.798Z,55.80
2023-01-30T04:16:23.279Z,55.01
2023-01-30T04:19:44.210Z,56.88
2023-01-30T04:22:48.465Z,55.23
2023-01-30T04:25:51.668Z,54.27
2023-01-30T04:28:56.567Z,53.38
2023-01-30T04:31:58.835Z,56.44
2023-01-30T04:35:04.955Z,56.04
2023-01-30T04:38:07.405Z,55.28
2023-01-30T04:41:10.203Z,56.65
2023-01-30T04:44:15.780Z,58.00
2023-01-30T04:47:47.221Z,59.38
2023-01-30T04:50:51.331Z,62.29
2023-01-30T04:53:55.969Z,64.92
2023-01-30T04:56:58.333Z,66.83
2023-01-30T05:00:00.821Z,66.38
2023-01-30T05:03:03.727Z,64.16
2023-01-30T05:06:06.872Z,62.58
2023-01-30T05:09:08.949Z,61.97
2023-01-30T05:12:11.337Z,59.22
2023-01-30T05:15:14.324Z,63.54
2023-01-30T05:18:16.995Z,63.80
2023-01-30T05:21:26.299Z,62.56
2023-01-30T05:24:28.925Z,64.59
2023-01-30T05:27:30.950Z,64.63
2023-01-30T05:30:33.843Z,64.66
2023-01-30T05:33:36.127Z,67.20
2023-01-30T05:36:38.877Z,63.96
2023-01-30T05:39:41.179Z,66.25
2023-01-30T05:42:43.762Z,65.66
2023-01-30T05:45:53.178Z,61.21
2023-01-30T05:48:55.541Z,62.26
2023-01-30T05:51:58.388Z,64.88
2023-01-30T05:55:01.290Z,62.83
2023-01-30T05:58:04.238Z,59.06
2023-01-30T06:01:11.885Z,63.77
2023-01-30T06:04:14.873Z,60.93
2023-01-30T06:07:17.360Z,61.87
2023-01-30T06:10:19.477Z,59.19
2023-01-30T06:13:23.165Z,60.52
2023-01-30T06:16:25.333Z,58.04
2023-01-30T06:19:28.011Z,61.30
2023-01-30T06:22:30.379Z,59.97
2023-01-30T06:25:32.916Z,59.93
2023-01-30T06:28:36.142Z,60.96
2023-01-30T06:31:39.062Z,59.52
2023-01-30T06:34:42.303Z,56.64
2023-01-30T06:37:45.718Z,57.85
2023-01-30T06:40:49.939Z,56.91
2023-01-30T06:43:53.319Z,54.88
2023-01-30T06:46:56.037Z,55.70
2023-01-30T06:50:00.366Z,54.02
2023-01-30T06:53:05.822Z,53.60
2023-01-30T06:56:09.530Z,54.43
2023-01-30T06:59:12.032Z,55.52
2023-01-30T07:02:14.853Z,52.27
2023-01-30T07:05:18.716Z,60.07
2023-01-30T07:08:23.269Z,59.30
2023-01-30T07:11:26.669Z,58.56
2023-01-30T07:14:29.427Z,54.38
2023-01-30T07:17:32.187Z,57.07
2023-01-30T07:20:34.957Z,56.91
2023-01-30T07:23:37.378Z,57.01
2023-01-30T07:26:40.695Z,55.79
2023-01-30T07:29:42.933Z,57.48
2023-01-30T07:32:53.213Z,56.54
2023-01-30T07:35:55.904Z,59.48
2023-01-30T07:38:58.701Z,58.41
2023-01-30T07:42:02.064Z,55.03
2023-01-30T07:45:05.582Z,55.47
2023-01-30T07:48:10.991Z,57.78
2023-01-30T07:51:13.997Z,56.00
2023-01-30T07:54:17.210Z,58.78
2023-01-30T07:57:19.696Z,56.61
2023-01-30T08:00:22.154Z,54.64
2023-01-30T08:03:25.948Z,53.41
2023-01-30T08:06:28.035Z,52.84
2023-01-30T08:09:31.987Z,53.43
2023-01-30T08:12:34.610Z,54.11
2023-01-30T08:15:37.372Z,56.05
2023-01-30T08:18:40.192Z,55.65
2023-01-30T08:21:42.937Z,53.90
2023-01-30T08:24:45.520Z,55.74
2023-01-30T08:27:48.431Z,58.02
2023-01-30T08:30:52.820Z,58.83
2023-01-30T08:33:55.705Z,57.49
2023-01-30T08:36:57.738Z,56.85
2023-01-30T08:40:00.348Z,59.24
2023-01-30T08:43:03.711Z,57.84
2023-01-30T08:46:06.465Z,58.99
2023-01-30T08:49:08.907Z,55.34
2023-01-30T08:52:11.647Z,55.16
2023-01-30T08:55:13.965Z,58.70
2023-01-30T08:58:16.710Z,58.16
2023-01-30T09:01:19.027Z,59.51
2023-01-30T09:04:23.889Z,57.27
2023-01-30T09:07:27.979Z,59.78
2023-01-30T09:10:31.190Z,58.16
2023-01-30T09:13:34.932Z,58.23
2023-01-30T09:16:38.024Z,61.30
2023-01-30T09:19:39.998Z,61.46
2023-01-30T09:22:42.858Z,62.33
2023-01-30T09:25:46.684Z,62.43
2023-01-30T09:28:49.243Z,63.76
2023-01-30T09:31:51.983Z,62.03
2023-01-30T09:34:54.618Z,65.05
2023-01-30T09:37:56.823Z,61.12
2023-01-30T09:41:00.488Z,62.25
2023-01-30T09:44:36.244Z,61.73
2023-01-30T09:48:17.619Z,64.01
2023-01-30T09:51:32.080Z,61.43
2023-01-30T09:54:39.173Z,62.91
2023-01-30T09:57:41.748Z,63.60
2023-01-30T10:00:47.356Z,60.73
2023-01-30T10:04:30.924Z,61.00
2023-01-30T10:07:44.989Z,65.05
2023-01-30T10:11:11.424Z,63.86
2023-01-30T10:14:25.900Z,64.94
2023-01-30T10:17:29.077Z,64.81
2023-01-30T10:20:45.831Z,64.52
2023-01-30T10:24:42.430Z,61.95
2023-01-30T10:28:10.592Z,62.72
2023-01-30T10:31:17.267Z,62.33
2023-01-30T10:34:29.486Z,60.59
2023-01-30T10:37:48.099Z,62.65
2023-01-30T10:41:24.202Z,62.25
2023-01-30T10:44:26.628Z,60.71
2023-01-30T10:47:50.369Z,58.53
2023-01-30T10:50:59.848Z,60.28
2023-01-30T10:54:38.366Z,60.28
2023-01-30T10:57:40.486Z,61.75
2023-01-30T11:00:55.802Z,62.50
2023-01-30T11:04:04.292Z,57.94
2023-01-30T11:07:07.892Z,61.76
2023-01-30T11:10:26.125Z,60.45
2023-01-30T11:13:34.024Z,62.60
2023-01-30T11:16:50.342Z,62.30
2023-01-30T11:19:57.408Z,62.49
2023-01-30T11:23:08.096Z,59.62
2023-01-30T11:26:29.505Z,62.73
2023-01-30T11:29:35.654Z,63.58
2023-01-30T11:32:38.224Z,64.22
2023-01-30T11:36:07.805Z,63.61
2023-01-30T11:39:13.356Z,64.01
2023-01-30T11:42:19.818Z,64.32
2023-01-30T11:45:27.161Z,64.93
2023-01-30T11:49:02.647Z,65.34
2023-01-30T11:51:55.994Z,64.27
2023-01-30T11:55:02.311Z,65.06
2023-01-30T11:58:10.467Z,67.27
2023-01-30T12:01:13.620Z,62.52
2023-01-30T12:04:16.543Z,63.99
2023-01-30T12:07:25.476Z,64.55
2023-01-30T12:10:32.150Z,64.75
2023-01-30T12:13:43.820Z,65.38
2023-01-30T12:17:11.743Z,65.31
2023-01-30T12:20:36.849Z,66.48
2023-01-30T12:23:49.213Z,65.08
2023-01-30T12:27:04.820Z,65.24
2023-01-30T12:30:20.670Z,65.20
2023-01-30T12:33:28.862Z,66.06
2023-01-30T12:36:52.763Z,65.93
2023-01-30T12:40:19.750Z,66.62
2023-01-30T12:43:59.492Z,67.14
2023-01-30T12:47:26.498Z,66.57
2023-01-30T12:50:45.151Z,66.36
2023-01-30T12:53:50.406Z,66.75
2023-01-30T12:57:24.812Z,67.17
2023-01-30T13:00:49.508Z,67.17
2023-01-30T13:04:01.489Z,67.01
2023-01-30T13:07:31.988Z,66.86
2023-01-30T13:10:45.636Z,67.17
2023-01-30T13:14:02.034Z,67.59
2023-01-30T13:17:39.729Z,67.26
2023-01-30T13:20:54.800Z,66.46
2023-01-30T13:24:21.285Z,66.16
2023-01-30T13:27:25.143Z,67.36
2023-01-30T13:30:30.086Z,66.13
2023-01-30T13:33:44.865Z,65.98
2023-01-30T13:36:56.869Z,66.53
2023-01-30T13:40:05.529Z,67.21
2023-01-30T13:43:33.636Z,67.44
2023-01-30T13:46:38.399Z,67.09
2023-01-30T13:50:00.784Z,67.10
2023-01-30T13:53:34.614Z,67.61
2023-01-30T13:56:50.572Z,67.58
2023-01-30T14:00:22.057Z,67.37
2023-01-30T14:03:25.731Z,67.31
2023-01-30T14:15:32.283Z,67.42
2023-01-30T14:18:38.983Z,66.90
2023-01-30T14:21:58.040Z,67.27
2023-01-30T14:25:46.388Z,67.21
2023-01-30T14:28:48.735Z,67.18
2023-01-30T14:31:51.631Z,66.80
2023-01-30T14:35:05.609Z,67.34
2023-01-30T14:38:13.276Z,66.88
2023-01-30T14:41:15.394Z,67.09
2023-01-30T14:44:56.237Z,67.55
2023-01-30T14:48:37.815Z,67.56
2023-01-30T14:51:40.140Z,67.16
2023-01-30T14:54:49.893Z,67.50
2023-01-30T14:57:58.142Z,67.37
2023-01-30T15:01:00.703Z,67.14
2023-01-30T15:04:05.673Z,67.29
2023-01-30T15:07:13.086Z,67.81
2023-01-30T15:10:33.974Z,67.49
2023-01-30T15:14:12.118Z,67.82
2023-01-30T15:17:33.739Z,68.47
2023-01-30T15:20:50.859Z,68.29
2023-01-30T15:23:59.783Z,68.79
2023-01-30T15:27:31.880Z,68.79
2023-01-30T15:31:07.135Z,69.32
2023-01-30T15:34:22.033Z,69.98
2023-01-30T15:37:36.762Z,70.11
2023-01-30T15:40:41.002Z,70.03
2023-01-30T15:43:58.798Z,69.84
2023-01-30T15:47:42.145Z,69.23
2023-01-30T15:50:49.836Z,69.19
2023-01-30T15:53:52.194Z,69.38
2023-01-30T15:56:59.203Z,69.47
2023-01-30T16:00:02.263Z,69.46
2023-01-30T16:03:23.394Z,69.58
2023-01-30T16:06:35.156Z,69.65
2023-01-30T16:09:37.650Z,70.11
2023-01-30T16:12:41.217Z,70.24
2023-01-30T16:15:49.303Z,70.35
2023-01-30T16:18:58.047Z,70.49
2023-01-30T16:22:03.696Z,70.50
2023-01-30T16:25:22.313Z,70.58
2023-01-30T16:28:27.424Z,70.85
2023-01-30T16:31:34.889Z,70.57
2023-01-30T16:34:39.357Z,70.42
2023-01-30T16:37:41.474Z,71.01
2023-01-30T16:40:46.279Z,71.15
2023-01-30T16:44:21.872Z,71.09
2023-01-30T16:47:29.030Z,70.66
2023-01-30T16:50:31.280Z,70.60
2023-01-30T16:53:34.186Z,70.27
2023-01-30T16:56:37.761Z,71.39
2023-01-30T16:59:40.676Z,71.57
2023-01-30T17:02:51.418Z,72.25
2023-01-30T17:05:54.375Z,70.92
2023-01-30T17:08:59.246Z,72.04
2023-01-30T17:12:02.514Z,72.26
2023-01-30T17:15:13.850Z,72.25
2023-01-30T17:18:17.393Z,73.33
2023-01-30T17:21:21.493Z,74.40
2023-01-30T17:24:25.655Z,74.52
2023-01-30T17:27:29.785Z,75.34
2023-01-30T17:30:33.358Z,75.22
2023-01-30T17:33:35.458Z,74.34
2023-01-30T17:36:39.704Z,73.40
2023-01-30T17:39:41.878Z,72.34
2023-01-30T17:42:44.842Z,71.41
2023-01-30T17:45:48.454Z,71.48
2023-01-30T17:48:52.144Z,69.69
2023-01-30T17:51:56.090Z,68.64
2023-01-30T17:54:58.697Z,70.59
2023-01-30T17:58:01.469Z,70.89
2023-01-30T18:01:04.051Z,70.54
2023-01-30T18:04:06.542Z,69.67
2023-01-30T18:07:14.278Z,70.73
2023-01-30T18:10:19.298Z,74.19
2023-01-30T18:13:23.989Z,74.68
2023-01-30T18:16:31.233Z,72.77
2023-01-30T18:19:34.637Z,72.26
2023-01-30T18:22:37.133Z,71.75
2023-01-30T18:25:39.517Z,71.22
2023-01-30T18:28:43.104Z,70.80
2023-01-30T18:31:45.834Z,71.18
2023-01-30T18:34:48.047Z,70.50
2023-01-30T18:37:52.698Z,67.51
2023-01-30T18:40:55.253Z,66.94
2023-01-30T18:44:00.606Z,67.10
2023-01-30T18:47:02.851Z,67.45
2023-01-30T18:50:07.027Z,64.82
2023-01-30T18:53:09.363Z,62.65
2023-01-30T18:56:15.305Z,60.09
2023-01-30T18:59:19.106Z,58.19
2023-01-30T19:02:22.331Z,56.68
2023-01-30T19:05:25.259Z,56.77
2023-01-30T19:08:28.322Z,57.00
2023-01-30T19:11:50.205Z,60.97
2023-01-30T19:14:52.689Z,61.35
2023-01-30T19:17:57.425Z,63.39
2023-01-30T19:21:01.314Z,62.53
2023-01-30T19:24:07.785Z,62.67
2023-01-30T19:27:13.983Z,62.55
2023-01-30T19:30:17.253Z,60.35
2023-01-30T19:33:20.989Z,61.53
2023-01-30T19:36:25.136Z,62.88
2023-01-30T19:39:28.424Z,62.83
2023-01-30T19:42:30.336Z,62.87
2023-01-30T19:45:33.408Z,65.89
2023-01-30T19:48:36.530Z,67.65
2023-01-30T19:51:39.238Z,68.96
2023-01-30T19:54:43.915Z,69.58
2023-01-30T19:57:46.825Z,69.36
2023-01-30T20:00:50.348Z,69.11
2023-01-30T20:03:53.791Z,70.28
2023-01-30T20:06:55.856Z,66.01
2023-01-30T20:09:58.288Z,65.03
2023-01-30T20:13:00.551Z,66.36
2023-01-30T20:16:15.466Z,68.06
2023-01-30T20:19:17.896Z,66.70
2023-01-30T20:22:20.786Z,64.27
2023-01-30T20:25:24.231Z,60.99
2023-01-30T20:28:28.134Z,60.90
2023-01-30T20:36:20.197Z,62.66
2023-01-30T20:39:22.490Z,60.44
2023-01-30T20:42:24.888Z,58.75
2023-01-30T20:45:28.059Z,58.41
2023-01-30T20:48:30.488Z,57.58
2023-01-30T20:51:35.172Z,56.90
2023-01-30T20:54:38.355Z,56.38
2023-01-30T20:57:45.061Z,56.20
2023-01-30T21:00:47.205Z,57.15
2023-01-30T21:03:52.443Z,56.11
2023-01-30T21:06:55.048Z,57.75
2023-01-30T21:09:57.512Z,57.54
2023-01-30T21:12:59.585Z,56.34
2023-01-30T21:16:08.324Z,55.94
2023-01-30T21:19:15.258Z,56.91
2023-01-30T21:22:18.637Z,56.26
2023-01-30T21:25:20.895Z,56.45
2023-01-30T21:28:23.678Z,56.08
2023-01-30T21:31:28.032Z,55.29
2023-01-30T21:34:35.416Z,54.74
2023-01-30T21:38:01.071Z,54.49
2023-01-30T21:41:22.874Z,54.39
2023-01-30T21:44:50.380Z,53.37
2023-01-30T21:53:14.831Z,52.28
2023-01-30T21:56:17.557Z,54.97
2023-01-30T21:59:19.647Z,55.23
2023-01-30T22:02:22.837Z,54.17
2023-01-30T22:05:25.036Z,56.28
2023-01-30T22:08:27.984Z,59.89
2023-01-30T22:11:30.803Z,57.32
2023-01-30T22:14:37.788Z,57.99
2023-01-30T22:17:40.049Z,58.00
2023-01-30T22:20:42.805Z,57.35
2023-01-30T22:23:48.666Z,56.38
2023-01-30T22:26:51.182Z,55.52
2023-01-30T22:29:53.291Z,55.07
2023-01-30T22:32:56.417Z,54.89
2023-01-30T22:35:59.197Z,54.53
2023-01-30T22:39:02.659Z,54.25
2023-01-30T22:42:04.779Z,54.04
2023-01-30T22:45:07.720Z,53.87
2023-01-30T22:48:10.114Z,53.63
2023-01-30T22:51:18.458Z,53.50
2023-01-30T22:54:20.466Z,53.41
2023-01-30T22:57:22.888Z,53.26
2023-01-30T23:00:25.268Z,53.15
2023-01-30T23:03:27.819Z,53.12
2023-01-30T23:06:31.546Z,53.10
2023-01-30T23:09:34.709Z,53.09
2023-01-30T23:12:55.615Z,52.96
2023-01-30T23:16:03.334Z,52.91
2023-01-30T23:19:07.205Z,52.92
2023-01-30T23:22:10.614Z,52.88
2023-01-30T23:25:13.270Z,52.81
2023-01-30T23:28:16.227Z,52.91
2023-01-30T23:31:24.322Z,52.69
2023-01-30T23:34:29.383Z,52.47
2023-01-30T23:37:51.008Z,52.35
2023-01-30T23:40:53.890Z,52.36
2023-01-30T23:43:57.889Z,52.23
2023-01-30T23:47:00.218Z,52.19
2023-01-30T23:50:02.312Z,52.25
2023-01-30T23:53:06.907Z,52.20
2023-01-30T23:56:10.118Z,52.27
2023-01-30T23:59:13.058Z,52.31
